PWSweather.com
Personal Weather Stations
Station Observations
REUBENS
Camas Prairie, Reubens, ID 83548

Camas PrairieReubens, ID 83548

Lat: 46.35417, Lon: -116.53167

Elevation: 3480

Station Type: Davis VantagePro 2

http://www.theobrienranch.com/wx/wx.htm

High Low Average
Temperature 28.8°F-1.8°F 19.7°F-6.8°F 25.3°F-3.7°F
Dew Point 27.3°F-2.6°F 18.0°F-7.8°F 23.9°F-4.5°F
Winds 6.9 mph W11.1 mph W Calm Calm 2.0 mph 3.2 mph
Wind Gusts 11.5 mph18.5 mph -- 3.8 mph6.1 mph
Humidity 95% 92% 94%
Pressure 30.32 in1026.80 in 30.18 in1022.00 in -
Precipitation 0.00 in0.00 in - -
Hour Temp Dew Point Humidity Winds Wind Gusts Pressure Precip Precip Rate Daily Precip Total
12:00 AM 26.4°F-3.1°C 25.2°F-3.8°C 95% 6.9 mph W11.1 kmh W 10.4 mph16.7 kmh 30.20 in1022.7 mb - 0.00 in0.0 mm 0.00 in0.0 mm
12:15 AM 26.5°F-3.1°C 25.3°F-3.7°C 95% 6.9 mph W11.1 kmh W 9.2 mph14.8 kmh 30.20 in1022.7 mb - 0.00 in0.0 mm 0.00 in0.0 mm
12:30 AM 26.5°F-3.1°C 25.3°F-3.7°C 95% 6.9 mph W11.1 kmh W 9.2 mph14.8 kmh 30.20 in1022.7 mb - 0.00 in0.0 mm 0.00 in0.0 mm
12:45 AM 26.6°F-3.0°C 25.4°F-3.7°C 95% 3.5 mph W5.6 kmh W 3.5 mph5.6 kmh 30.20 in1022.7 mb - 0.00 in0.0 mm 0.00 in0.0 mm
01:00 AM 26.6°F-3.0°C 25.4°F-3.7°C 95% 2.3 mph W3.7 kmh W 3.5 mph5.6 kmh 30.20 in1022.7 mb - 0.00 in0.0 mm 0.00 in0.0 mm
01:15 AM 26.5°F-3.1°C 25.3°F-3.7°C 95% 1.2 mph W1.9 kmh W 2.3 mph3.7 kmh 30.20 in1022.7 mb - 0.00 in0.0 mm 0.00 in0.0 mm
01:30 AM 26.4°F-3.1°C 25.2°F-3.8°C 95% 3.5 mph W5.6 kmh W 5.8 mph9.3 kmh 30.19 in1022.4 mb - 0.00 in0.0 mm 0.00 in0.0 mm
01:45 AM 26.3°F-3.2°C 25.1°F-3.8°C 95% 5.8 mph W9.3 kmh W 3.5 mph5.6 kmh 30.19 in1022.4 mb - 0.00 in0.0 mm 0.00 in0.0 mm
02:00 AM 26.2°F-3.2°C 25.0°F-3.9°C 95% 2.3 mph W3.7 kmh W 3.5 mph5.6 kmh 30.19 in1022.4 mb - 0.00 in0.0 mm 0.00 in0.0 mm
02:15 AM 26.2°F-3.2°C 25.0°F-3.9°C 95% 4.6 mph W7.4 kmh W 9.2 mph14.8 kmh 30.19 in1022.4 mb - 0.00 in0.0 mm 0.00 in0.0 mm
02:30 AM 26.1°F-3.3°C 24.9°F-3.9°C 95% 4.6 mph W7.4 kmh W 6.9 mph11.1 kmh 30.18 in1022.0 mb - 0.00 in0.0 mm 0.00 in0.0 mm
02:45 AM 25.9°F-3.4°C 24.7°F-4.1°C 95% Calm Calm -- 30.18 in1022.0 mb - 0.00 in0.0 mm 0.00 in0.0 mm
03:00 AM 25.8°F-3.4°C 24.6°F-4.1°C 95% 3.5 mph WNW5.6 kmh WNW 4.6 mph7.4 kmh 30.19 in1022.4 mb - 0.00 in0.0 mm 0.00 in0.0 mm
03:15 AM 25.8°F-3.4°C 24.5°F-4.2°C 95% 3.5 mph WNW5.6 kmh WNW 4.6 mph7.4 kmh 30.20 in1022.7 mb - 0.00 in0.0 mm 0.00 in0.0 mm
03:30 AM 25.8°F-3.4°C 24.6°F-4.1°C 95% 3.5 mph WNW5.6 kmh WNW 3.5 mph5.6 kmh 30.20 in1022.7 mb - 0.00 in0.0 mm 0.00 in0.0 mm
03:45 AM 25.8°F-3.4°C 24.6°F-4.1°C 95% 2.3 mph WNW3.7 kmh WNW 3.5 mph5.6 kmh 30.20 in1022.7 mb - 0.00 in0.0 mm 0.00 in0.0 mm
04:00 AM 25.9°F-3.4°C 24.6°F-4.1°C 95% 2.3 mph WNW3.7 kmh WNW 3.5 mph5.6 kmh 30.20 in1022.7 mb - 0.00 in0.0 mm 0.00 in0.0 mm
04:15 AM 25.9°F-3.4°C 24.7°F-4.1°C 95% 2.3 mph WNW3.7 kmh WNW 3.5 mph5.6 kmh 30.20 in1022.7 mb - 0.00 in0.0 mm 0.00 in0.0 mm
04:30 AM 26.0°F-3.3°C 24.8°F-4.0°C 95% 2.3 mph WNW3.7 kmh WNW 4.6 mph7.4 kmh 30.21 in1023.0 mb - 0.00 in0.0 mm 0.00 in0.0 mm
04:45 AM 26.0°F-3.3°C 24.8°F-4.0°C 95% 2.3 mph WNW3.7 kmh WNW 3.5 mph5.6 kmh 30.21 in1023.0 mb - 0.00 in0.0 mm 0.00 in0.0 mm
05:00 AM 26.1°F-3.3°C 24.9°F-3.9°C 95% Calm Calm 1.2 mph1.9 kmh 30.21 in1023.0 mb - 0.00 in0.0 mm 0.00 in0.0 mm
05:15 AM 26.2°F-3.2°C 25.0°F-3.9°C 95% Calm Calm -- 30.22 in1023.4 mb - 0.00 in0.0 mm 0.00 in0.0 mm
05:30 AM 26.1°F-3.3°C 24.8°F-4.0°C 95% 2.3 mph NW3.7 kmh NW 3.5 mph5.6 kmh 30.22 in1023.4 mb - 0.00 in0.0 mm 0.00 in0.0 mm
05:45 AM 25.9°F-3.4°C 24.7°F-4.1°C 95% Calm Calm -- 30.22 in1023.4 mb - 0.00 in0.0 mm 0.00 in0.0 mm
06:00 AM 25.7°F-3.5°C 24.5°F-4.2°C 95% Calm Calm 3.5 mph5.6 kmh 30.22 in1023.4 mb - 0.00 in0.0 mm 0.00 in0.0 mm
06:15 AM 25.6°F-3.6°C 24.4°F-4.2°C 95% 1.2 mph NW1.9 kmh NW 3.5 mph5.6 kmh 30.22 in1023.4 mb - 0.00 in0.0 mm 0.00 in0.0 mm
06:30 AM 25.4°F-3.7°C 24.2°F-4.3°C 95% 1.2 mph NW1.9 kmh NW 3.5 mph5.6 kmh 30.22 in1023.4 mb - 0.00 in0.0 mm 0.00 in0.0 mm
06:45 AM 25.3°F-3.7°C 24.1°F-4.4°C 95% 2.3 mph NW3.7 kmh NW 3.5 mph5.6 kmh 30.22 in1023.4 mb - 0.00 in0.0 mm 0.00 in0.0 mm
07:00 AM 25.2°F-3.8°C 24.0°F-4.4°C 95% 2.3 mph NW3.7 kmh NW 3.5 mph5.6 kmh 30.22 in1023.4 mb - 0.00 in0.0 mm 0.00 in0.0 mm
07:15 AM 25.2°F-3.8°C 24.0°F-4.4°C 95% 2.3 mph NW3.7 kmh NW 4.6 mph7.4 kmh 30.23 in1023.7 mb - 0.00 in0.0 mm 0.00 in0.0 mm
07:30 AM 25.2°F-3.8°C 24.0°F-4.4°C 95% 2.3 mph NW3.7 kmh NW 3.5 mph5.6 kmh 30.23 in1023.7 mb - 0.00 in0.0 mm 0.00 in0.0 mm
07:45 AM 25.4°F-3.7°C 24.2°F-4.3°C 95% 2.3 mph NW3.7 kmh NW 4.6 mph7.4 kmh 30.24 in1024.0 mb - 0.00 in0.0 mm 0.00 in0.0 mm
08:00 AM 25.4°F-3.7°C 24.2°F-4.3°C 95% 1.2 mph NW1.9 kmh NW 3.5 mph5.6 kmh 30.25 in1024.4 mb - 0.00 in0.0 mm 0.00 in0.0 mm
08:15 AM 25.6°F-3.6°C 24.1°F-4.4°C 94% 2.3 mph NW3.7 kmh NW 3.5 mph5.6 kmh 30.25 in1024.4 mb - 0.00 in0.0 mm 0.00 in0.0 mm
08:30 AM 25.8°F-3.4°C 24.6°F-4.1°C 95% 3.5 mph NW5.6 kmh NW 3.5 mph5.6 kmh 30.25 in1024.4 mb - 0.00 in0.0 mm 0.00 in0.0 mm
08:45 AM 25.8°F-3.4°C 24.6°F-4.1°C 95% 2.3 mph NW3.7 kmh NW 3.5 mph5.6 kmh 30.25 in1024.4 mb - 0.00 in0.0 mm 0.00 in0.0 mm
09:00 AM 26.0°F-3.3°C 24.7°F-4.1°C 95% 2.3 mph NW3.7 kmh NW 5.8 mph9.3 kmh 30.25 in1024.4 mb - 0.00 in0.0 mm 0.00 in0.0 mm
09:15 AM 26.1°F-3.3°C 24.9°F-3.9°C 95% 1.2 mph NW1.9 kmh NW 3.5 mph5.6 kmh 30.25 in1024.4 mb - 0.00 in0.0 mm 0.00 in0.0 mm
09:30 AM 26.4°F-3.1°C 24.9°F-3.9°C 94% 3.5 mph NW5.6 kmh NW 4.6 mph7.4 kmh 30.25 in1024.4 mb - 0.00 in0.0 mm 0.00 in0.0 mm
09:45 AM 26.2°F-3.2°C 24.7°F-4.1°C 94% 2.3 mph NW3.7 kmh NW 3.5 mph5.6 kmh 30.26 in1024.7 mb - 0.00 in0.0 mm 0.00 in0.0 mm
10:00 AM 26.1°F-3.3°C 24.6°F-4.1°C 94% 3.5 mph NW5.6 kmh NW 3.5 mph5.6 kmh 30.26 in1024.7 mb - 0.00 in0.0 mm 0.00 in0.0 mm
10:15 AM 26.4°F-3.1°C 24.9°F-3.9°C 94% Calm Calm -- 30.27 in1025.1 mb - 0.00 in0.0 mm 0.00 in0.0 mm
10:30 AM 27.1°F-2.7°C 25.6°F-3.6°C 94% 1.2 mph NW1.9 kmh NW 3.5 mph5.6 kmh 30.27 in1025.1 mb - 0.00 in0.0 mm 0.00 in0.0 mm
10:45 AM 27.1°F-2.7°C 25.6°F-3.6°C 94% 1.2 mph NW1.9 kmh NW -- 30.27 in1025.1 mb - 0.00 in0.0 mm 0.00 in0.0 mm
11:00 AM 27.6°F-2.4°C 26.1°F-3.3°C 94% 1.2 mph NW1.9 kmh NW 4.6 mph7.4 kmh 30.27 in1025.1 mb - 0.00 in0.0 mm 0.00 in0.0 mm
11:15 AM 27.6°F-2.4°C 26.1°F-3.3°C 94% 1.2 mph NW1.9 kmh NW 3.5 mph5.6 kmh 30.27 in1025.1 mb - 0.00 in0.0 mm 0.00 in0.0 mm
11:30 AM 26.9°F-2.8°C 25.4°F-3.7°C 94% 4.6 mph NW7.4 kmh NW 5.8 mph9.3 kmh 30.27 in1025.1 mb - 0.00 in0.0 mm 0.00 in0.0 mm
11:45 AM 27.2°F-2.7°C 25.7°F-3.5°C 94% 1.2 mph NW1.9 kmh NW 2.3 mph3.7 kmh 30.27 in1025.1 mb - 0.00 in0.0 mm 0.00 in0.0 mm
12:00 PM 27.8°F-2.3°C 26.6°F-3.0°C 95% 3.5 mph NW5.6 kmh NW 6.9 mph11.1 kmh 30.27 in1025.1 mb - 0.00 in0.0 mm 0.00 in0.0 mm
12:15 PM 27.2°F-2.7°C 26.0°F-3.3°C 95% 2.3 mph NW3.7 kmh NW 3.5 mph5.6 kmh 30.27 in1025.1 mb - 0.00 in0.0 mm 0.00 in0.0 mm
12:30 PM 26.9°F-2.8°C 25.7°F-3.5°C 95% 2.3 mph NW3.7 kmh NW 6.9 mph11.1 kmh 30.27 in1025.1 mb - 0.00 in0.0 mm 0.00 in0.0 mm
12:45 PM 27.0°F-2.8°C 25.7°F-3.5°C 95% 3.5 mph NW5.6 kmh NW 5.8 mph9.3 kmh 30.27 in1025.1 mb - 0.00 in0.0 mm 0.00 in0.0 mm
01:00 PM 26.8°F-2.9°C 25.6°F-3.6°C 95% 3.5 mph NW5.6 kmh NW 8.1 mph13.0 kmh 30.27 in1025.1 mb - 0.00 in0.0 mm 0.00 in0.0 mm
01:15 PM 27.1°F-2.7°C 25.9°F-3.4°C 95% 2.3 mph WNW3.7 kmh WNW 8.1 mph13.0 kmh 30.28 in1025.4 mb - 0.00 in0.0 mm 0.00 in0.0 mm
01:30 PM 27.4°F-2.6°C 26.2°F-3.2°C 95% 2.3 mph NW3.7 kmh NW 8.1 mph13.0 kmh 30.27 in1025.1 mb - 0.00 in0.0 mm 0.00 in0.0 mm
01:45 PM 28.3°F-2.1°C 27.1°F-2.7°C 95% 2.3 mph NW3.7 kmh NW 4.6 mph7.4 kmh 30.27 in1025.1 mb - 0.00 in0.0 mm 0.00 in0.0 mm
02:00 PM 28.3°F-2.1°C 26.7°F-2.9°C 94% 2.3 mph NW3.7 kmh NW 5.8 mph9.3 kmh 30.27 in1025.1 mb - 0.00 in0.0 mm 0.00 in0.0 mm
02:15 PM 28.3°F-2.1°C 26.8°F-2.9°C 94% 2.3 mph NW3.7 kmh NW 11.5 mph18.5 kmh 30.27 in1025.1 mb - 0.00 in0.0 mm 0.00 in0.0 mm
02:30 PM 27.8°F-2.3°C 26.3°F-3.2°C 94% 2.3 mph NW3.7 kmh NW 9.2 mph14.8 kmh 30.27 in1025.1 mb - 0.00 in0.0 mm 0.00 in0.0 mm
02:45 PM 27.8°F-2.3°C 26.3°F-3.2°C 94% 4.6 mph NW7.4 kmh NW 6.9 mph11.1 kmh 30.27 in1025.1 mb - 0.00 in0.0 mm 0.00 in0.0 mm
03:00 PM 27.3°F-2.6°C 25.8°F-3.4°C 94% 2.3 mph NW3.7 kmh NW 5.8 mph9.3 kmh 30.28 in1025.4 mb - 0.00 in0.0 mm 0.00 in0.0 mm
03:15 PM 27.4°F-2.6°C 25.9°F-3.4°C 94% 2.3 mph NW3.7 kmh NW 3.5 mph5.6 kmh 30.28 in1025.4 mb - 0.00 in0.0 mm 0.00 in0.0 mm
03:30 PM 28.5°F-1.9°C 27.0°F-2.8°C 94% 1.2 mph NW1.9 kmh NW 3.5 mph5.6 kmh 30.27 in1025.1 mb - 0.00 in0.0 mm 0.00 in0.0 mm
03:45 PM 28.8°F-1.8°C 27.3°F-2.6°C 94% 1.2 mph NW1.9 kmh NW 4.6 mph7.4 kmh 30.27 in1025.1 mb - 0.00 in0.0 mm 0.00 in0.0 mm
04:00 PM 26.6°F-3.0°C 24.9°F-3.9°C 93% 2.3 mph NW3.7 kmh NW 3.5 mph5.6 kmh 30.28 in1025.4 mb - 0.00 in0.0 mm 0.00 in0.0 mm
04:15 PM 26.2°F-3.2°C 24.5°F-4.2°C 93% 2.3 mph NW3.7 kmh NW 3.5 mph5.6 kmh 30.28 in1025.4 mb - 0.00 in0.0 mm 0.00 in0.0 mm
04:30 PM 26.4°F-3.1°C 24.9°F-3.9°C 94% 1.2 mph NW1.9 kmh NW 3.5 mph5.6 kmh 30.29 in1025.7 mb - 0.00 in0.0 mm 0.00 in0.0 mm
04:45 PM 26.1°F-3.3°C 24.6°F-4.1°C 94% 3.5 mph NW5.6 kmh NW 5.8 mph9.3 kmh 30.29 in1025.7 mb - 0.00 in0.0 mm 0.00 in0.0 mm
05:00 PM 25.4°F-3.7°C 23.7°F-4.6°C 93% 1.2 mph NW1.9 kmh NW 3.5 mph5.6 kmh 30.30 in1026.1 mb - 0.00 in0.0 mm 0.00 in0.0 mm
05:15 PM 25.1°F-3.8°C 23.6°F-4.7°C 94% 1.2 mph NW1.9 kmh NW 3.5 mph5.6 kmh 30.31 in1026.4 mb - 0.00 in0.0 mm 0.00 in0.0 mm
05:30 PM 24.7°F-4.1°C 23.3°F-4.8°C 94% 3.5 mph NW5.6 kmh NW 4.6 mph7.4 kmh 30.30 in1026.1 mb - 0.00 in0.0 mm 0.00 in0.0 mm
05:45 PM 24.0°F-4.4°C 22.5°F-5.3°C 94% 1.2 mph NW1.9 kmh NW 3.5 mph5.6 kmh 30.30 in1026.1 mb - 0.00 in0.0 mm 0.00 in0.0 mm
06:00 PM 23.7°F-4.6°C 22.2°F-5.4°C 94% 2.3 mph NW3.7 kmh NW 4.6 mph7.4 kmh 30.30 in1026.1 mb - 0.00 in0.0 mm 0.00 in0.0 mm
06:15 PM 23.4°F-4.8°C 21.9°F-5.6°C 94% 2.3 mph NW3.7 kmh NW 3.5 mph5.6 kmh 30.31 in1026.4 mb - 0.00 in0.0 mm 0.00 in0.0 mm
06:30 PM 23.0°F-5.0°C 21.5°F-5.8°C 94% 2.3 mph NW3.7 kmh NW 5.8 mph9.3 kmh 30.32 in1026.8 mb - 0.00 in0.0 mm 0.00 in0.0 mm
06:45 PM 22.8°F-5.1°C 21.4°F-5.9°C 94% 1.2 mph NW1.9 kmh NW 3.5 mph5.6 kmh 30.31 in1026.4 mb - 0.00 in0.0 mm 0.00 in0.0 mm
07:00 PM 22.8°F-5.1°C 21.1°F-6.1°C 93% 2.3 mph NW3.7 kmh NW 3.5 mph5.6 kmh 30.31 in1026.4 mb - 0.00 in0.0 mm 0.00 in0.0 mm
07:15 PM 22.9°F-5.1°C 21.2°F-6.0°C 93% 2.3 mph NW3.7 kmh NW 4.6 mph7.4 kmh 30.31 in1026.4 mb - 0.00 in0.0 mm 0.00 in0.0 mm
07:30 PM 22.9°F-5.1°C 21.2°F-6.0°C 93% 1.2 mph NW1.9 kmh NW 3.5 mph5.6 kmh 30.31 in1026.4 mb - 0.00 in0.0 mm 0.00 in0.0 mm
07:45 PM 22.8°F-5.1°C 21.1°F-6.1°C 93% Calm Calm 3.5 mph5.6 kmh 30.30 in1026.1 mb - 0.00 in0.0 mm 0.00 in0.0 mm
08:00 PM 22.7°F-5.2°C 21.0°F-6.1°C 93% Calm Calm -- 30.30 in1026.1 mb - 0.00 in0.0 mm 0.00 in0.0 mm
08:15 PM 22.3°F-5.4°C 20.6°F-6.3°C 93% Calm Calm -- 30.30 in1026.1 mb - 0.00 in0.0 mm 0.00 in0.0 mm
08:30 PM 21.9°F-5.6°C 20.2°F-6.6°C 93% Calm Calm -- 30.30 in1026.1 mb - 0.00 in0.0 mm 0.00 in0.0 mm
08:45 PM 21.1°F-6.1°C 19.2°F-7.1°C 92% Calm Calm -- 30.32 in1026.8 mb - 0.00 in0.0 mm 0.00 in0.0 mm
09:00 PM 20.4°F-6.4°C 18.7°F-7.4°C 93% Calm Calm -- 30.32 in1026.8 mb - 0.00 in0.0 mm 0.00 in0.0 mm
09:15 PM 20.3°F-6.5°C 18.6°F-7.4°C 93% Calm Calm -- 30.32 in1026.8 mb - 0.00 in0.0 mm 0.00 in0.0 mm
09:30 PM 19.7°F-6.8°C 18.0°F-7.8°C 93% Calm Calm -- 30.32 in1026.8 mb - 0.00 in0.0 mm 0.00 in0.0 mm
09:45 PM 21.1°F-6.1°C 19.4°F-7.0°C 93% 2.3 mph NW3.7 kmh NW 3.5 mph5.6 kmh 30.31 in1026.4 mb - 0.00 in0.0 mm 0.00 in0.0 mm
10:00 PM 20.6°F-6.3°C 18.9°F-7.3°C 93% 1.2 mph NW1.9 kmh NW 2.3 mph3.7 kmh 30.31 in1026.4 mb - 0.00 in0.0 mm 0.00 in0.0 mm
10:15 PM 20.9°F-6.2°C 19.2°F-7.1°C 93% 1.2 mph NW1.9 kmh NW 3.5 mph5.6 kmh 30.32 in1026.8 mb - 0.00 in0.0 mm 0.00 in0.0 mm
10:30 PM 20.9°F-6.2°C 19.2°F-7.1°C 93% Calm Calm -- 30.32 in1026.8 mb - 0.00 in0.0 mm 0.00 in0.0 mm
10:45 PM 20.9°F-6.2°C 19.2°F-7.1°C 93% Calm Calm -- 30.32 in1026.8 mb - 0.00 in0.0 mm 0.00 in0.0 mm
11:00 PM 21.5°F-5.8°C 19.8°F-6.8°C 93% 1.2 mph NW1.9 kmh NW 2.3 mph3.7 kmh 30.31 in1026.4 mb - 0.00 in0.0 mm 0.00 in0.0 mm
11:15 PM 21.7°F-5.7°C 20.0°F-6.7°C 93% Calm Calm -- 30.32 in1026.8 mb - 0.00 in0.0 mm 0.00 in0.0 mm
11:30 PM 22.0°F-5.6°C 20.3°F-6.5°C 93% Calm Calm -- 30.32 in1026.8 mb - 0.00 in0.0 mm 0.00 in0.0 mm
11:45 PM 22.2°F-5.4°C 20.5°F-6.4°C 93% Calm Calm -- 30.32 in1026.8 mb - 0.00 in0.0 mm 0.00 in0.0 mm